Time;durP1;ratioP1;P1;durP2;ratioP2;P2;SDS_P1;SDS_P2;PMS_P1;PMS_P2;Temp;Humidity;BMP_temperature;BMP_pressure;BME280_temperature;BME280_humidity;BME280_pressure;Samples;Min_cycle;Max_cycle;Signal;HPM_P1;HPM_P2
2024/01/13 00:00:29;;;;;;;12.50;8.13;;;3.20;99.90;;;;;;7376004;19;20027;-64
2024/01/13 00:02:55;;;;;;;15.50;7.85;;;3.20;99.90;;;;;;7381740;19;20623;-65
2024/01/13 00:05:22;;;;;;;15.80;9.23;;;3.10;99.90;;;;;;7375709;19;20105;-65
2024/01/13 00:07:48;;;;;;;10.52;6.95;;;3.10;99.90;;;;;;7382083;19;20021;-65
2024/01/13 00:10:14;;;;;;;11.95;7.28;;;3.10;99.90;;;;;;7378980;19;20353;-65
2024/01/13 00:12:40;;;;;;;17.08;7.82;;;3.10;99.90;;;;;;7382897;19;20022;-64
2024/01/13 00:15:07;;;;;;;12.73;8.02;;;3.10;99.90;;;;;;7376269;19;20019;-65
2024/01/13 00:17:33;;;;;;;13.10;7.82;;;3.10;99.90;;;;;;7378549;19;20022;-65
2024/01/13 00:20:00;;;;;;;12.98;7.28;;;3.10;99.90;;;;;;7380430;19;20819;-65
2024/01/13 00:22:26;;;;;;;11.75;7.25;;;3.10;99.90;;;;;;7376849;19;20093;-65
2024/01/13 00:24:52;;;;;;;11.25;6.40;;;3.00;99.90;;;;;;7376459;19;20022;-65
2024/01/13 00:27:20;;;;;;;12.57;6.03;;;3.10;99.90;;;;;;7375015;19;20705;-64
2024/01/13 00:29:46;;;;;;;11.50;6.18;;;3.10;99.90;;;;;;7378583;19;20014;-64
2024/01/13 00:32:13;;;;;;;13.40;6.07;;;3.10;99.90;;;;;;7376427;19;20841;-64
2024/01/13 00:34:39;;;;;;;11.25;6.13;;;3.00;99.90;;;;;;7376939;19;20022;-65
2024/01/13 00:37:06;;;;;;;11.32;6.65;;;3.10;99.90;;;;;;7371454;19;20018;-65
2024/01/13 00:39:33;;;;;;;12.88;6.40;;;3.10;99.90;;;;;;7376330;19;20042;-65
2024/01/13 00:41:59;;;;;;;10.43;5.88;;;3.10;99.90;;;;;;7377781;19;20747;-65
2024/01/13 00:44:25;;;;;;;11.45;6.25;;;3.10;99.90;;;;;;7378475;19;20930;-65
2024/01/13 00:46:52;;;;;;;13.00;6.10;;;3.00;99.90;;;;;;7373026;19;20529;-65
2024/01/13 00:49:18;;;;;;;14.23;6.25;;;3.00;99.90;;;;;;7375536;19;20025;-64
2024/01/13 00:51:44;;;;;;;11.38;6.30;;;3.00;99.90;;;;;;7377205;19;20025;-64
2024/01/13 00:54:10;;;;;;;11.23;6.65;;;3.00;99.90;;;;;;7377034;19;20022;-65
2024/01/13 00:56:37;;;;;;;12.88;7.07;;;3.00;99.90;;;;;;7374329;19;20022;-64
2024/01/13 00:59:03;;;;;;;12.23;7.22;;;3.00;99.90;;;;;;7373521;19;20826;-65
2024/01/13 01:01:29;;;;;;;18.33;8.30;;;3.00;99.90;;;;;;7376256;19;20601;-65
2024/01/13 01:03:56;;;;;;;15.55;7.65;;;3.00;99.90;;;;;;7374448;19;20014;-73
2024/01/13 01:06:22;;;;;;;13.90;7.65;;;2.90;99.90;;;;;;7372069;19;20025;-73
2024/01/13 01:08:48;;;;;;;17.48;8.48;;;3.00;99.90;;;;;;7374794;19;20029;-64
2024/01/13 01:11:15;;;;;;;19.50;7.30;;;3.00;99.90;;;;;;7373738;19;20034;-73
2024/01/13 01:13:41;;;;;;;15.77;7.25;;;3.00;99.90;;;;;;7374379;19;20033;-73
2024/01/13 01:16:08;;;;;;;17.60;7.35;;;3.00;99.90;;;;;;7378534;19;20014;-73
2024/01/13 01:18:34;;;;;;;19.05;7.70;;;2.90;99.90;;;;;;7374060;19;20028;-74
2024/01/13 01:21:00;;;;;;;19.70;8.10;;;3.00;99.90;;;;;;7378294;19;20122;-64
2024/01/13 01:23:27;;;;;;;15.98;6.68;;;2.90;99.90;;;;;;7373387;19;20029;-64
2024/01/13 01:25:53;;;;;;;16.08;6.75;;;3.00;99.90;;;;;;7379841;19;20043;-72
2024/01/13 01:28:22;;;;;;;15.15;7.00;;;3.00;99.90;;;;;;7374530;19;20022;-73
2024/01/13 01:31:08;;;;;;;14.00;6.07;;;2.90;99.90;;;;;;7375278;19;20474;-73
2024/01/13 01:33:34;;;;;;;10.95;5.93;;;2.90;99.90;;;;;;7375992;19;20018;-74
2024/01/13 01:36:01;;;;;;;13.57;5.72;;;3.00;99.90;;;;;;7363757;19;20623;-73
2024/01/13 01:38:28;;;;;;;11.75;5.95;;;3.00;99.90;;;;;;7372537;19;20010;-74
2024/01/13 01:40:55;;;;;;;14.30;6.55;;;3.00;99.90;;;;;;7374492;19;20018;-73
2024/01/13 01:43:21;;;;;;;12.15;6.03;;;3.00;99.90;;;;;;7373494;19;20014;-74
2024/01/13 01:45:53;;;;;;;17.73;6.63;;;3.00;99.90;;;;;;7371939;19;20501;-65
2024/01/13 01:48:27;;;;;;;16.13;6.55;;;3.00;99.90;;;;;;7375063;19;20019;-64
2024/01/13 01:50:53;;;;;;;13.13;6.68;;;3.00;99.90;;;;;;7376805;19;20484;-65
2024/01/13 01:53:20;;;;;;;12.68;5.93;;;3.00;99.90;;;;;;7376987;19;20023;-73
2024/01/13 01:55:46;;;;;;;15.27;7.40;;;3.00;99.90;;;;;;7366135;19;20018;-74
2024/01/13 01:58:16;;;;;;;13.77;7.05;;;3.00;99.90;;;;;;7374257;19;20022;-74
2024/01/13 02:00:43;;;;;;;14.63;6.68;;;3.10;99.90;;;;;;7370724;19;20445;-74
2024/01/13 02:03:09;;;;;;;14.23;7.00;;;3.10;99.90;;;;;;7373568;19;20109;-74
2024/01/13 02:05:37;;;;;;;17.65;7.13;;;3.10;99.90;;;;;;7371672;19;20471;-73
2024/01/13 02:08:04;;;;;;;15.18;7.43;;;3.10;99.90;;;;;;7371837;19;20033;-73
2024/01/13 02:10:31;;;;;;;13.15;6.85;;;3.10;99.90;;;;;;7369281;19;20018;-73
2024/01/13 02:12:57;;;;;;;14.68;7.88;;;3.10;99.90;;;;;;7374356;19;20043;-74
2024/01/13 02:15:23;;;;;;;17.52;8.18;;;3.10;99.90;;;;;;7372596;19;20022;-65
2024/01/13 02:17:49;;;;;;;17.98;8.55;;;3.10;99.90;;;;;;7373520;19;20038;-64
2024/01/13 02:20:16;;;;;;;20.30;8.40;;;3.10;99.90;;;;;;7372198;19;20042;-65
2024/01/13 02:23:02;;;;;;;15.30;7.75;;;3.20;99.90;;;;;;7375745;19;20045;-65
2024/01/13 02:25:28;;;;;;;16.70;8.25;;;3.20;99.90;;;;;;7370396;19;20027;-65
2024/01/13 02:27:55;;;;;;;17.08;7.78;;;3.20;99.90;;;;;;7369237;19;20034;-64
2024/01/13 02:30:21;;;;;;;18.90;9.07;;;3.20;99.90;;;;;;7371758;19;20810;-74
2024/01/13 02:32:50;;;;;;;17.05;8.07;;;3.20;99.90;;;;;;7374452;19;20019;-73
2024/01/13 02:35:16;;;;;;;15.90;7.65;;;3.20;99.90;;;;;;7370540;19;20029;-65
2024/01/13 02:37:42;;;;;;;14.80;8.18;;;3.20;99.90;;;;;;7367654;19;20030;-74
2024/01/13 02:40:09;;;;;;;13.95;7.70;;;3.30;99.90;;;;;;7371071;19;20022;-64
2024/01/13 02:42:36;;;;;;;15.52;8.35;;;3.30;99.90;;;;;;7372805;19;20034;-74
2024/01/13 02:45:02;;;;;;;17.83;8.98;;;3.20;99.90;;;;;;7372720;19;20620;-64
2024/01/13 02:47:47;;;;;;;17.10;8.45;;;3.20;99.90;;;;;;7372570;19;20022;-73
2024/01/13 02:50:14;;;;;;;18.33;8.18;;;3.30;99.90;;;;;;7371561;19;20018;-73
2024/01/13 02:52:42;;;;;;;15.23;8.43;;;3.20;99.90;;;;;;7373417;19;20525;-72
2024/01/13 02:55:09;;;;;;;18.92;8.82;;;3.20;99.90;;;;;;7373966;19;20019;-64
2024/01/13 02:57:35;;;;;;;19.55;9.23;;;3.30;99.90;;;;;;7370294;19;20014;-64
2024/01/13 03:00:04;;;;;;;21.13;9.75;;;3.20;99.90;;;;;;7372610;19;20494;-64
2024/01/13 03:02:30;;;;;;;17.63;8.80;;;3.20;99.90;;;;;;7373268;19;20014;-64
2024/01/13 03:04:56;;;;;;;18.83;8.93;;;3.20;99.90;;;;;;7376079;19;20015;-64
2024/01/13 03:07:25;;;;;;;19.55;10.10;;;3.20;99.90;;;;;;7375065;19;20022;-64
2024/01/13 03:09:51;;;;;;;17.17;9.45;;;3.20;99.90;;;;;;7380847;19;20029;-64
2024/01/13 03:12:18;;;;;;;17.40;10.00;;;3.20;99.90;;;;;;7377896;19;20045;-73
2024/01/13 03:14:45;;;;;;;16.52;9.52;;;3.20;99.90;;;;;;7379175;19;20079;-72
2024/01/13 03:17:12;;;;;;;16.50;9.98;;;3.20;99.90;;;;;;7382094;19;20022;-73
2024/01/13 03:19:38;;;;;;;16.65;10.13;;;3.20;99.90;;;;;;7377968;19;20038;-73
2024/01/13 03:22:04;;;;;;;16.92;9.48;;;3.20;99.90;;;;;;7377427;19;20018;-72
2024/01/13 03:24:30;;;;;;;23.13;10.40;;;3.20;99.90;;;;;;7377527;19;20018;-64
2024/01/13 03:26:57;;;;;;;21.08;10.02;;;3.20;99.90;;;;;;7378255;19;20022;-64
2024/01/13 03:29:23;;;;;;;19.02;9.90;;;3.20;99.90;;;;;;7376340;19;20028;-73
2024/01/13 03:31:49;;;;;;;21.40;9.77;;;3.20;99.90;;;;;;7378551;19;20022;-73
2024/01/13 03:34:15;;;;;;;18.15;9.07;;;3.20;99.90;;;;;;7377786;19;20021;-73
2024/01/13 03:36:41;;;;;;;18.17;9.95;;;3.10;99.90;;;;;;7376210;19;20031;-73
2024/01/13 03:39:09;;;;;;;16.40;9.35;;;3.20;99.90;;;;;;7380583;19;20827;-64
2024/01/13 03:41:36;;;;;;;15.50;8.70;;;3.20;99.90;;;;;;7379527;19;20376;-65
2024/01/13 03:44:02;;;;;;;15.05;8.55;;;3.20;99.90;;;;;;7379917;19;20046;-64
2024/01/13 03:46:31;;;;;;;18.80;9.70;;;3.20;99.90;;;;;;7380657;19;20106;-65
2024/01/13 03:48:57;;;;;;;16.13;8.77;;;3.20;99.90;;;;;;7378693;19;20025;-64
2024/01/13 03:51:23;;;;;;;16.65;9.55;;;3.20;99.90;;;;;;7379217;19;20022;-64
2024/01/13 03:53:49;;;;;;;17.20;8.45;;;3.20;99.90;;;;;;7379523;19;20014;-73
2024/01/13 03:56:16;;;;;;;15.23;8.55;;;3.10;99.90;;;;;;7378400;19;20018;-73
2024/01/13 03:58:42;;;;;;;14.88;8.63;;;3.20;99.90;;;;;;7379482;19;20022;-73
2024/01/13 04:01:09;;;;;;;15.70;9.15;;;3.20;99.90;;;;;;7378849;19;20014;-73
2024/01/13 04:03:55;;;;;;;16.20;7.85;;;3.20;99.90;;;;;;7379062;19;20723;-73
2024/01/13 04:06:22;;;;;;;15.95;7.93;;;3.20;99.90;;;;;;7378088;19;20054;-74
2024/01/13 04:08:48;;;;;;;18.42;8.52;;;3.20;99.90;;;;;;7380997;19;20015;-74
2024/01/13 04:11:14;;;;;;;19.35;8.23;;;3.20;99.90;;;;;;7372865;19;20420;-73
2024/01/13 04:13:40;;;;;;;13.10;8.10;;;3.20;99.90;;;;;;7379870;19;20098;-73
2024/01/13 04:16:07;;;;;;;16.60;8.50;;;3.20;99.90;;;;;;7373484;19;20019;-73
2024/01/13 04:18:34;;;;;;;14.82;8.52;;;3.20;99.90;;;;;;7372005;19;20142;-73
2024/01/13 04:21:00;;;;;;;16.83;8.23;;;3.20;99.90;;;;;;7374257;19;20039;-73
2024/01/13 04:23:26;;;;;;;15.55;8.40;;;3.20;99.90;;;;;;7376330;19;20624;-64
2024/01/13 04:25:52;;;;;;;15.23;8.13;;;3.20;99.90;;;;;;7373192;19;20038;-65
2024/01/13 04:28:18;;;;;;;16.63;8.15;;;3.20;99.90;;;;;;7376468;19;20472;-73
2024/01/13 04:30:45;;;;;;;13.15;7.85;;;3.20;99.90;;;;;;7370538;19;20019;-73
2024/01/13 04:33:11;;;;;;;18.92;8.70;;;3.20;99.90;;;;;;7372504;19;20018;-73
2024/01/13 04:35:37;;;;;;;14.68;8.60;;;3.20;99.90;;;;;;7372078;19;20026;-75
2024/01/13 04:38:04;;;;;;;15.20;7.47;;;3.20;99.90;;;;;;7373389;19;20026;-73
2024/01/13 04:40:50;;;;;;;15.38;7.90;;;3.20;99.90;;;;;;7371251;19;20860;-73
2024/01/13 04:43:17;;;;;;;19.70;7.60;;;3.20;99.90;;;;;;7373366;19;20025;-74
2024/01/13 04:45:43;;;;;;;17.58;8.30;;;3.20;99.90;;;;;;7373569;19;20018;-73
2024/01/13 04:48:15;;;;;;;16.13;7.80;;;3.30;99.90;;;;;;7375764;19;20019;-74
2024/01/13 04:50:41;;;;;;;14.30;7.63;;;3.30;99.90;;;;;;7371149;19;20023;-74
2024/01/13 04:53:07;;;;;;;16.35;8.27;;;3.20;99.90;;;;;;7372042;19;20090;-73
2024/01/13 04:55:33;;;;;;;16.52;8.20;;;3.20;99.90;;;;;;7373386;19;20022;-66
2024/01/13 04:57:59;;;;;;;17.92;8.68;;;3.30;99.90;;;;;;7374454;19;20554;-65
2024/01/13 05:00:26;;;;;;;15.32;7.90;;;3.20;99.90;;;;;;7370968;19;20015;-65
2024/01/13 05:02:52;;;;;;;16.35;8.18;;;3.20;99.90;;;;;;7376496;19;20018;-65
2024/01/13 05:05:18;;;;;;;14.55;7.18;;;3.30;99.90;;;;;;7378680;19;20046;-65
2024/01/13 05:07:45;;;;;;;14.57;7.95;;;3.30;99.90;;;;;;7372254;19;20531;-65
2024/01/13 05:10:11;;;;;;;16.15;8.98;;;3.20;99.90;;;;;;7373896;19;20077;-65
2024/01/13 05:12:57;;;;;;;15.15;7.70;;;3.20;99.90;;;;;;7376477;19;20097;-65
2024/01/13 05:15:24;;;;;;;19.23;8.18;;;3.20;99.90;;;;;;7374613;19;20025;-65
2024/01/13 05:17:50;;;;;;;16.58;8.23;;;3.20;99.90;;;;;;7373098;19;20018;-65
2024/01/13 05:20:16;;;;;;;15.32;7.53;;;3.20;99.90;;;;;;7373386;19;20026;-65
2024/01/13 05:22:45;;;;;;;15.25;7.53;;;3.20;99.90;;;;;;7374336;19;20623;-64
2024/01/13 05:25:12;;;;;;;14.63;8.02;;;3.20;99.90;;;;;;7374651;19;20022;-74
2024/01/13 05:27:58;;;;;;;13.05;7.03;;;3.20;99.90;;;;;;7370349;19;22098;-73
2024/01/13 05:30:26;;;;;;;11.65;6.38;;;3.30;99.90;;;;;;7366308;19;20014;-64
2024/01/13 05:32:52;;;;;;;15.98;7.07;;;3.30;99.90;;;;;;7377221;19;20094;-65
2024/01/13 05:35:19;;;;;;;11.50;5.70;;;3.30;99.90;;;;;;7371708;19;20074;-64
2024/01/13 05:37:45;;;;;;;14.05;6.38;;;3.30;99.90;;;;;;7373896;19;20471;-64
2024/01/13 05:40:12;;;;;;;13.05;5.80;;;3.30;99.90;;;;;;7368799;19;20022;-64
2024/01/13 05:42:38;;;;;;;11.23;6.35;;;3.20;99.90;;;;;;7373078;19;20018;-65
2024/01/13 05:45:06;;;;;;;10.38;5.05;;;3.20;99.90;;;;;;7370969;19;20972;-65
2024/01/13 05:47:32;;;;;;;9.82;5.15;;;3.20;99.90;;;;;;7374903;19;20018;-73
2024/01/13 05:49:58;;;;;;;10.13;4.95;;;3.20;99.90;;;;;;7369340;19;20015;-73
2024/01/13 05:52:25;;;;;;;7.97;4.70;;;3.20;99.90;;;;;;7369177;19;20022;-73
2024/01/13 05:54:51;;;;;;;12.65;4.38;;;3.10;99.90;;;;;;7369946;19;20479;-73
2024/01/13 05:57:37;;;;;;;7.72;4.07;;;3.10;99.90;;;;;;7366609;19;20505;-73
2024/01/13 06:00:04;;;;;;;10.82;4.78;;;3.10;99.90;;;;;;7367814;19;20022;-74
2024/01/13 06:02:33;;;;;;;10.55;4.90;;;3.20;99.90;;;;;;7368900;19;20054;-73
2024/01/13 06:04:59;;;;;;;10.85;4.78;;;3.10;99.90;;;;;;7372194;19;20510;-64
2024/01/13 06:07:28;;;;;;;12.63;4.63;;;3.20;99.90;;;;;;7369579;19;20015;-65
2024/01/13 06:09:55;;;;;;;10.55;3.95;;;3.10;99.90;;;;;;7369110;19;20021;-65
2024/01/13 06:12:22;;;;;;;9.68;4.20;;;3.20;99.90;;;;;;7367584;19;20428;-73
2024/01/13 06:14:48;;;;;;;8.05;4.45;;;3.20;99.90;;;;;;7370105;19;20022;-73
2024/01/13 06:17:15;;;;;;;9.73;4.20;;;3.10;99.90;;;;;;7370251;19;20022;-73
2024/01/13 06:19:41;;;;;;;7.78;3.63;;;3.10;99.90;;;;;;7369082;19;20018;-75
2024/01/13 06:22:09;;;;;;;11.93;4.57;;;3.10;99.90;;;;;;7369538;19;20029;-64
2024/01/13 06:24:35;;;;;;;14.07;4.35;;;3.10;99.90;;;;;;7369380;19;20022;-73
2024/01/13 06:27:01;;;;;;;12.35;4.82;;;3.20;99.90;;;;;;7370893;19;20037;-73
2024/01/13 06:29:50;;;;;;;10.27;4.53;;;3.10;99.90;;;;;;7369094;19;20018;-73
2024/01/13 06:32:16;;;;;;;10.50;5.70;;;3.10;99.90;;;;;;7369047;19;20065;-73
2024/01/13 06:34:42;;;;;;;9.82;5.60;;;3.10;99.90;;;;;;7369003;19;20014;-73
2024/01/13 06:37:08;;;;;;;10.25;5.32;;;3.10;99.90;;;;;;7366060;19;20724;-64
2024/01/13 06:39:35;;;;;;;12.70;5.32;;;3.10;99.90;;;;;;7367820;19;20089;-65
2024/01/13 06:42:06;;;;;;;14.05;5.18;;;3.10;99.90;;;;;;7368344;19;20391;-64
2024/01/13 06:44:33;;;;;;;11.43;5.43;;;3.10;99.90;;;;;;7370161;19;20022;-73
2024/01/13 06:47:02;;;;;;;9.57;5.35;;;3.10;99.90;;;;;;7363709;19;20547;-73
2024/01/13 06:49:28;;;;;;;9.77;5.72;;;3.10;99.90;;;;;;7370787;19;20022;-67
2024/01/13 06:51:54;;;;;;;12.05;5.53;;;3.20;99.90;;;;;;7367097;19;20101;-67
2024/01/13 06:54:20;;;;;;;9.55;4.65;;;3.20;99.90;;;;;;7369293;19;20134;-64
2024/01/13 06:56:46;;;;;;;9.93;6.15;;;3.20;99.90;;;;;;7368274;19;20022;-64
2024/01/13 06:59:14;;;;;;;9.82;5.53;;;3.20;99.90;;;;;;7363996;19;20014;-64
2024/01/13 07:01:40;;;;;;;11.27;5.65;;;3.20;99.90;;;;;;7361535;19;20082;-64
2024/01/13 07:04:06;;;;;;;11.80;6.03;;;3.20;99.90;;;;;;7370334;19;20040;-71
2024/01/13 07:06:33;;;;;;;10.30;5.45;;;3.20;99.90;;;;;;7365353;19;20015;-64
2024/01/13 07:08:59;;;;;;;10.82;5.65;;;3.20;99.90;;;;;;7366337;19;20475;-65
2024/01/13 07:11:26;;;;;;;11.43;6.20;;;3.20;99.90;;;;;;7363264;19;20019;-70
2024/01/13 07:13:52;;;;;;;15.60;6.75;;;3.20;99.90;;;;;;7365151;19;20014;-72
2024/01/13 07:16:18;;;;;;;10.75;6.05;;;3.20;99.90;;;;;;7366117;19;20443;-72
2024/01/13 07:18:44;;;;;;;10.20;5.38;;;3.20;99.90;;;;;;7368483;19;20031;-71
2024/01/13 07:21:11;;;;;;;12.80;5.82;;;3.20;99.90;;;;;;7368797;19;20019;-64
2024/01/13 07:23:38;;;;;;;10.27;4.60;;;3.20;99.90;;;;;;7373410;19;21984;-64
2024/01/13 07:26:05;;;;;;;13.65;5.05;;;3.30;99.90;;;;;;7369950;19;20019;-71
2024/01/13 07:28:32;;;;;;;12.73;5.07;;;3.30;99.90;;;;;;7370513;19;20767;-71
2024/01/13 07:30:58;;;;;;;12.80;5.50;;;3.30;99.90;;;;;;7369622;19;20086;-72
2024/01/13 07:33:24;;;;;;;9.13;4.78;;;3.40;99.90;;;;;;7365323;19;20065;-71
2024/01/13 07:35:50;;;;;;;10.13;4.60;;;3.40;99.90;;;;;;7369812;19;20033;-65
2024/01/13 07:38:16;;;;;;;12.80;6.63;;;3.40;99.90;;;;;;7370856;19;20019;-64
2024/01/13 07:40:44;;;;;;;10.13;4.78;;;3.40;99.90;;;;;;7367893;19;20090;-64
2024/01/13 07:43:11;;;;;;;10.32;4.95;;;3.40;99.90;;;;;;7365747;19;20750;-64
2024/01/13 07:45:37;;;;;;;10.98;4.80;;;3.30;99.90;;;;;;7369798;19;20806;-71
2024/01/13 07:48:04;;;;;;;9.13;4.97;;;3.40;99.90;;;;;;7371074;19;20024;-71
2024/01/13 07:50:30;;;;;;;10.90;4.68;;;3.40;99.90;;;;;;7368752;19;20018;-65
2024/01/13 07:52:56;;;;;;;7.57;4.20;;;3.30;99.90;;;;;;7368093;19;20011;-64
2024/01/13 07:55:23;;;;;;;6.40;4.05;;;3.30;99.90;;;;;;7375972;19;20777;-64
2024/01/13 07:57:49;;;;;;;8.57;4.03;;;3.40;99.90;;;;;;7374633;19;20054;-64
2024/01/13 08:00:15;;;;;;;8.45;4.53;;;3.40;99.90;;;;;;7372804;19;20031;-71
2024/01/13 08:02:42;;;;;;;6.57;3.85;;;3.40;99.90;;;;;;7368713;19;20047;-69
2024/01/13 08:05:08;;;;;;;8.52;4.47;;;3.40;99.90;;;;;;7374530;19;20052;-63
2024/01/13 08:07:54;;;;;;;6.43;3.20;;;3.40;99.90;;;;;;7377624;19;20026;-64
2024/01/13 08:10:21;;;;;;;6.20;3.45;;;3.40;99.90;;;;;;7380427;19;20022;-71
2024/01/13 08:12:49;;;;;;;10.65;4.13;;;3.40;99.90;;;;;;7374557;19;20021;-71
2024/01/13 08:15:16;;;;;;;6.85;4.22;;;3.40;99.90;;;;;;7375080;19;20632;-71
2024/01/13 08:17:42;;;;;;;8.07;4.22;;;3.40;99.90;;;;;;7371622;19;20010;-71
2024/01/13 08:20:28;;;;;;;8.05;4.90;;;3.50;99.90;;;;;;7375358;19;20023;-71
2024/01/13 08:22:55;;;;;;;7.45;4.65;;;3.50;99.90;;;;;;7376167;19;20035;-64
2024/01/13 08:25:21;;;;;;;9.95;5.45;;;3.50;99.90;;;;;;7375187;19;20037;-64
2024/01/13 08:27:47;;;;;;;12.90;6.45;;;3.50;99.90;;;;;;7374409;19;20086;-64
2024/01/13 08:30:14;;;;;;;9.88;6.10;;;3.50;99.90;;;;;;7375105;19;20023;-64
2024/01/13 08:32:40;;;;;;;12.70;6.40;;;3.50;99.90;;;;;;7379464;19;20834;-64
2024/01/13 08:35:10;;;;;;;13.93;7.10;;;3.50;99.90;;;;;;7374270;19;20025;-64
2024/01/13 08:37:36;;;;;;;20.55;8.98;;;3.50;99.90;;;;;;7373476;19;20019;-64
2024/01/13 08:40:04;;;;;;;17.92;8.98;;;3.60;99.90;;;;;;7377480;19;20401;-64
2024/01/13 08:42:31;;;;;;;20.88;10.43;;;3.60;99.90;;;;;;7376019;19;20049;-64
2024/01/13 08:44:57;;;;;;;20.35;10.15;;;3.60;99.90;;;;;;7374112;19;20014;-70
2024/01/13 08:47:44;;;;;;;23.60;11.10;;;3.60;99.90;;;;;;7372320;19;20018;-65
2024/01/13 08:50:11;;;;;;;24.60;11.38;;;3.60;99.90;;;;;;7377107;19;20015;-65
2024/01/13 08:52:38;;;;;;;24.13;13.10;;;3.60;99.90;;;;;;7375504;19;20011;-65
2024/01/13 08:55:05;;;;;;;31.10;12.90;;;3.60;99.90;;;;;;7376432;19;20019;-64
2024/01/13 08:57:31;;;;;;;36.53;16.52;;;3.60;99.90;;;;;;7372463;19;20026;-64
2024/01/13 09:00:18;;;;;;;39.17;15.43;;;3.60;99.90;;;;;;7376804;19;20356;-64
2024/01/13 09:02:45;;;;;;;38.97;18.65;;;3.60;99.90;;;;;;7374368;19;20027;-64
2024/01/13 09:05:12;;;;;;;40.53;19.63;;;3.60;99.90;;;;;;7375068;19;20022;-64
2024/01/13 09:07:39;;;;;;;45.67;21.38;;;3.60;99.90;;;;;;7370485;19;20056;-71
2024/01/13 09:10:06;;;;;;;39.95;20.95;;;3.60;99.90;;;;;;7376396;19;20751;-70
2024/01/13 09:12:32;;;;;;;45.97;22.77;;;3.70;99.90;;;;;;7373425;19;20841;-64
2024/01/13 09:14:59;;;;;;;46.83;22.75;;;3.70;99.90;;;;;;7377368;19;20025;-64
2024/01/13 09:17:28;;;;;;;50.47;22.92;;;3.70;99.90;;;;;;7370888;19;20030;-65
2024/01/13 09:19:55;;;;;;;49.45;27.13;;;3.70;99.90;;;;;;7374471;19;20771;-65
2024/01/13 09:22:21;;;;;;;48.83;24.92;;;3.70;99.90;;;;;;7374349;19;20022;-65
2024/01/13 09:24:48;;;;;;;50.35;27.67;;;3.70;99.90;;;;;;7372044;19;20014;-64
2024/01/13 09:27:16;;;;;;;55.70;27.80;;;3.60;99.90;;;;;;7371286;19;20022;-65
2024/01/13 09:29:45;;;;;;;56.92;27.25;;;3.70;99.90;;;;;;7371276;19;20051;-66
2024/01/13 09:32:12;;;;;;;60.40;28.02;;;3.70;99.90;;;;;;7372156;19;20102;-63
2024/01/13 09:34:38;;;;;;;55.22;29.73;;;3.70;99.90;;;;;;7374441;19;20074;-65
2024/01/13 09:37:05;;;;;;;63.38;29.83;;;3.60;99.90;;;;;;7369470;19;20044;-63
2024/01/13 09:39:31;;;;;;;57.92;29.52;;;3.70;99.90;;;;;;7373687;19;20025;-64
2024/01/13 09:41:59;;;;;;;62.08;29.88;;;3.70;99.90;;;;;;7373323;19;20014;-64
2024/01/13 09:44:29;;;;;;;58.03;31.20;;;3.70;99.90;;;;;;7371601;19;20043;-71
2024/01/13 09:46:58;;;;;;;70.25;34.58;;;3.70;99.90;;;;;;7370621;19;20026;-71
2024/01/13 09:49:30;;;;;;;69.50;34.22;;;3.70;99.90;;;;;;7372640;19;20035;-71
2024/01/13 09:51:58;;;;;;;61.65;34.35;;;3.70;99.90;;;;;;7371385;19;20022;-71
2024/01/13 09:54:26;;;;;;;63.97;34.58;;;3.70;99.90;;;;;;7367412;19;20408;-71
2024/01/13 09:56:53;;;;;;;71.25;38.67;;;3.80;99.90;;;;;;7368442;19;20026;-70
2024/01/13 09:59:22;;;;;;;66.55;35.13;;;3.80;99.90;;;;;;7370372;19;20711;-70
2024/01/13 10:01:49;;;;;;;72.78;38.75;;;3.80;99.90;;;;;;7371216;19;20022;-64
2024/01/13 10:04:15;;;;;;;78.03;38.65;;;3.80;99.90;;;;;;7369177;19;20029;-64
2024/01/13 10:06:41;;;;;;;71.40;39.85;;;3.80;99.90;;;;;;7367964;19;20023;-64
2024/01/13 10:09:08;;;;;;;63.03;36.55;;;3.80;99.90;;;;;;7369191;19;20014;-65
2024/01/13 10:11:55;;;;;;;71.47;38.22;;;3.80;99.90;;;;;;7371172;19;20110;-64
2024/01/13 10:14:23;;;;;;;65.65;40.55;;;3.90;99.90;;;;;;7372712;19;20793;-64
2024/01/13 10:16:49;;;;;;;61.75;36.15;;;3.90;99.90;;;;;;7369100;19;20837;-63
2024/01/13 10:19:15;;;;;;;69.97;39.80;;;3.90;99.90;;;;;;7372112;19;20038;-64
2024/01/13 10:21:42;;;;;;;66.07;37.47;;;3.90;99.90;;;;;;7370704;19;20130;-64
2024/01/13 10:24:08;;;;;;;66.05;38.67;;;3.90;99.90;;;;;;7373937;19;20011;-63
2024/01/13 10:26:35;;;;;;;71.53;39.97;;;3.90;99.90;;;;;;7371375;19;20041;-64
2024/01/13 10:29:01;;;;;;;70.82;41.03;;;3.90;99.90;;;;;;7369587;19;20030;-64
2024/01/13 10:31:30;;;;;;;70.05;38.95;;;4.00;99.90;;;;;;7371805;19;20052;-64
2024/01/13 10:33:57;;;;;;;71.38;41.92;;;4.00;99.90;;;;;;7372065;19;20018;-64
2024/01/13 10:36:24;;;;;;;65.45;40.75;;;4.00;99.90;;;;;;7367379;19;20032;-70
2024/01/13 10:38:58;;;;;;;73.90;38.93;;;4.00;99.90;;;;;;7368560;19;20018;-70
2024/01/13 10:41:29;;;;;;;63.13;38.08;;;4.00;99.90;;;;;;7365898;19;20519;-70
2024/01/13 10:44:03;;;;;;;66.25;40.47;;;4.00;99.90;;;;;;7365951;19;20026;-71
2024/01/13 10:46:33;;;;;;;70.93;41.45;;;4.00;99.90;;;;;;7365930;19;20021;-70
2024/01/13 10:49:04;;;;;;;67.88;40.05;;;4.00;99.90;;;;;;7363778;19;20029;-70
2024/01/13 10:51:43;;;;;;;70.97;43.28;;;4.00;99.90;;;;;;7359161;19;20019;-70
2024/01/13 10:54:13;;;;;;;68.35;39.90;;;4.00;99.90;;;;;;7361266;19;20769;-70
2024/01/13 10:56:40;;;;;;;67.63;42.70;;;3.90;99.90;;;;;;7362007;19;20018;-70
2024/01/13 10:59:10;;;;;;;73.07;42.13;;;3.90;99.90;;;;;;7363498;19;20024;-71
2024/01/13 11:01:38;;;;;;;68.30;42.22;;;4.00;99.90;;;;;;7363884;19;20606;-69
2024/01/13 11:04:04;;;;;;;74.90;42.80;;;4.00;99.90;;;;;;7367589;19;20123;-64
2024/01/13 11:06:31;;;;;;;66.55;40.47;;;4.00;99.90;;;;;;7374386;19;20054;-64
2024/01/13 11:08:58;;;;;;;69.70;42.80;;;4.00;99.90;;;;;;7369883;19;20124;-64
2024/01/13 11:11:38;;;;;;;69.90;40.95;;;4.00;99.90;;;;;;7372596;19;20050;-64
2024/01/13 11:14:21;;;;;;;76.57;44.38;;;4.00;99.90;;;;;;7373960;19;20021;-64
2024/01/13 11:16:50;;;;;;;65.43;37.55;;;4.00;99.90;;;;;;7370254;19;20029;-64
2024/01/13 11:19:16;;;;;;;74.70;42.17;;;4.00;99.90;;;;;;7369705;19;20071;-63
2024/01/13 11:21:48;;;;;;;69.50;43.53;;;4.00;99.90;;;;;;7366503;19;20091;-64
2024/01/13 11:24:15;;;;;;;65.53;39.33;;;4.00;99.90;;;;;;7372291;19;20021;-64
2024/01/13 11:26:43;;;;;;;71.10;40.65;;;4.00;99.90;;;;;;7369354;19;20022;-64
2024/01/13 11:29:26;;;;;;;68.30;41.15;;;4.00;99.90;;;;;;7378388;19;20810;-64
2024/01/13 11:31:58;;;;;;;71.20;42.20;;;4.00;99.90;;;;;;7376838;19;20376;-64
2024/01/13 11:34:26;;;;;;;71.85;40.80;;;4.00;99.90;;;;;;7380856;19;20018;-65
2024/01/13 11:37:01;;;;;;;73.57;42.35;;;4.00;99.90;;;;;;7373980;19;20090;-65
2024/01/13 11:39:28;;;;;;;82.15;42.40;;;3.90;99.90;;;;;;7374020;19;20038;-70
2024/01/13 11:41:56;;;;;;;80.75;43.67;;;4.00;99.90;;;;;;7373601;19;20771;-71
2024/01/13 11:44:25;;;;;;;74.70;41.53;;;4.00;99.90;;;;;;7374552;19;20026;-71
2024/01/13 11:46:58;;;;;;;;;;;4.00;99.90;;;;;;7378070;19;20015;-70
2024/01/13 11:49:34;;;;;;;81.03;42.10;;;4.00;99.90;;;;;;7364443;19;19930;-72
2024/01/13 11:52:05;;;;;;;71.90;39.85;;;4.00;99.90;;;;;;7369662;19;20025;-67
2024/01/13 11:54:34;;;;;;;72.13;40.22;;;4.00;99.90;;;;;;7377253;19;20014;-66
2024/01/13 11:57:09;;;;;;;76.30;42.65;;;4.00;99.90;;;;;;7376734;19;20057;-65
2024/01/13 11:59:35;;;;;;;71.82;37.78;;;4.00;99.90;;;;;;7375058;19;20022;-65
2024/01/13 12:02:02;;;;;;;71.45;40.22;;;4.10;99.90;;;;;;7378116;19;20495;-65
2024/01/13 12:04:49;;;;;;;72.20;39.08;;;4.10;99.90;;;;;;7375697;19;20022;-64
2024/01/13 12:07:16;;;;;;;71.30;39.80;;;4.20;99.90;;;;;;7377958;19;20021;-67
2024/01/13 12:09:43;;;;;;;64.45;36.78;;;4.10;99.90;;;;;;7373594;19;20011;-71
2024/01/13 12:12:11;;;;;;;73.03;39.42;;;4.10;99.90;;;;;;7373480;19;20014;-71
2024/01/13 12:14:37;;;;;;;72.20;39.05;;;4.10;99.90;;;;;;7372440;19;20018;-71
2024/01/13 12:17:05;;;;;;;67.55;36.45;;;4.10;99.90;;;;;;7374869;19;20014;-65
2024/01/13 12:19:39;;;;;;;68.68;38.00;;;4.20;99.90;;;;;;7376653;19;20035;-65
2024/01/13 12:22:07;;;;;;;75.13;37.72;;;4.20;99.90;;;;;;7379904;19;20034;-70
2024/01/13 12:24:35;;;;;;;75.70;39.67;;;4.20;99.90;;;;;;7372033;19;20018;-70
2024/01/13 12:27:02;;;;;;;71.82;39.22;;;4.20;99.90;;;;;;7376082;19;20106;-63
2024/01/13 12:29:29;;;;;;;76.47;40.05;;;4.30;99.90;;;;;;7370987;19;20025;-69
2024/01/13 12:32:15;;;;;;;64.03;38.13;;;4.20;99.90;;;;;;7376182;19;20509;-64
2024/01/13 12:35:03;;;;;;;67.57;36.55;;;4.20;99.90;;;;;;7373781;19;20021;-69
2024/01/13 12:37:30;;;;;;;68.68;38.92;;;4.20;99.90;;;;;;7373582;19;20018;-70
2024/01/13 12:39:56;;;;;;;68.07;38.22;;;4.20;99.90;;;;;;7372705;19;20029;-69
2024/01/13 12:42:22;;;;;;;71.13;40.25;;;4.20;99.90;;;;;;7375951;19;20867;-69
2024/01/13 12:44:49;;;;;;;78.32;39.25;;;4.20;99.90;;;;;;7376351;19;20033;-69
2024/01/13 12:47:16;;;;;;;73.07;39.53;;;4.20;99.90;;;;;;7378001;19;20026;-69
2024/01/13 12:49:43;;;;;;;83.18;40.97;;;4.10;99.90;;;;;;7372589;19;20022;-70